EW0975 Weather Reports


Display with metric or nautical units.
time (UTC)temp
F
wind
direction
speed
MPH
gust
MPH
rain 1hr
in
rain 24hr
in
rain mn
in
humidity
%
barometer
mb
20180820184502 78 187 9.0 13.0 0.00 0.76 0.78 73 1008.1
20180820184002 79 196 9.0 15.0 0.00 0.76 0.78 74 1008.0
20180820183502 78 196 9.0 15.0 0.00 0.76 0.78 75 1007.9
20180820183002 78 196 8.0 10.0 0.00 0.76 0.78 74 1007.8
20180820182502 78 163 9.0 10.0 0.00 0.76 0.78 72 1008.2
20180820182001 78 147 9.0 13.0 0.00 0.76 0.78 73 1008.0
20180820181502 78 157 9.0 13.0 0.00 0.76 0.78 73 1008.2
20180820181002 79 161 11.0 16.0 0.00 0.76 0.78 72 1008.0
20180820180502 77 173 11.0 16.0 0.00 0.76 0.78 75 1008.0
20180820180002 77 163 9.0 13.0 0.00 0.76 0.78 77 1008.1
20180820175502 78 171 10.0 15.0 0.00 0.76 0.78 80 1008.3
20180820175002 76 185 11.0 15.0 0.00 0.76 0.78 79 1008.3
20180820174502 76 178 10.0 15.0 0.00 0.76 0.78 81 1008.5
20180820174001 76 168 10.0 15.0 0.00 0.76 0.78 81 1008.4
20180820173502 76 163 10.0 13.0 0.00 0.76 0.78 81 1008.4
20180820173002 76 157 9.0 13.0 0.00 0.76 0.78 81 1008.2
20180820172502 76 176 9.0 13.0 0.00 0.76 0.78 80 1008.4
20180820172002 76 189 10.0 15.0 0.00 0.76 0.78 78 1008.3
20180820171502 77 184 10.0 15.0 0.00 0.76 0.78 81 1008.4
20180820171002 76 186 8.0 13.0 0.00 0.76 0.78 82 1008.4
20180820170502 75 190 8.0 11.0 0.00 0.76 0.78 82 1008.5
20180820170003 76 193 7.0 9.0 0.00 0.76 0.78 81 1008.6
20180820165501 76 185 9.0 13.0 0.00 0.76 0.78 81 1008.5
20180820165002 74 191 10.0 13.0 0.00 0.76 0.78 83 1008.6
20180820164502 74 193 9.0 13.0 0.00 0.76 0.78 83 1008.7
20180820164002 75 172 10.0 15.0 0.00 0.76 0.78 84 1008.7
20180820163502 74 158 10.0 15.0 0.00 0.76 0.78 84 1008.8
20180820163002 75 172 8.0 13.0 0.00 0.76 0.78 84 1008.7
20180820162502 74 194 8.0 14.0 0.00 0.76 0.78 85 1008.4
20180820162003 74 186 8.0 14.0 0.00 0.76 0.78 85 1008.5
20180820161502 73 156 7.0 9.0 0.00 0.76 0.78 85 1008.5
20180820161002 73 166 7.0 9.0 0.00 0.76 0.78 84 1008.5
20180820160502 74 171 8.0 11.0 0.00 0.76 0.78 85 1008.6
20180820160002 73 163 9.0 11.0 0.00 0.76 0.78 84 1008.3
20180820155503 74 176 9.0 11.0 0.00 0.76 0.78 86 1008.2
20180820155002 74 179 9.0 12.0 0.00 0.76 0.78 86 1008.4
20180820154502 74 165 9.0 12.0 0.00 0.76 0.78 89 1008.3
20180820154002 73 172 9.0 11.0 0.00 0.76 0.78 88 1008.3
20180820153503 73 181 8.0 11.0 0.00 0.76 0.78 90 1008.2
20180820153002 72 180 7.0 11.0 0.00 0.76 0.78 91 1008.3
20180820152502 72 191 8.0 11.0 0.00 0.76 0.78 92 1008.1
20180820152002 72 184 9.0 12.0 0.00 0.76 0.78 90 1008.2
20180820151502 72 180 8.0 12.0 0.00 0.76 0.78 87 1008.2
20180820151002 74 192 7.0 12.0 0.00 0.76 0.78 86 1008.0
20180820150502 74 185 8.0 12.0 0.00 0.76 0.78 86 1008.1
20180820150002 74 177 9.0 12.0 0.00 0.76 0.78 87 1008.2
20180820145502 73 159 8.0 11.0 0.00 0.76 0.78 88 1008.2
20180820145003 73 168 9.0 11.0 0.00 0.76 0.78 88 1008.1
20180820144502 73 186 9.0 11.0 0.00 0.76 0.78 88 1008.0
20180820144002 72 175 9.0 11.0 0.00 0.76 0.78 89 1008.3
20180820143503 72 180 9.0 11.0 0.00 0.76 0.78 90 1008.2
20180820143002 73 198 7.0 9.0 0.00 0.76 0.78 89 1007.9
20180820142503 73 193 7.0 11.0 0.00 0.76 0.78 88 1008.0
20180820142002 73 182 7.0 11.0 0.00 0.76 0.78 88 1008.0
20180820141503 74 180 8.0 13.0 0.00 0.76 0.78 88 1008.1
20180820141002 74 182 9.0 13.0 0.00 0.76 0.78 88 1008.0
20180820140502 74 183 8.0 10.0 0.00 0.76 0.78 87 1007.9
20180820140003 74 191 7.0 11.0 0.00 0.76 0.78 87 1008.2
20180820135502 74 192 10.0 16.0 0.00 0.76 0.78 89 1008.1
20180820135002 74 177 10.0 16.0 0.00 0.76 0.78 92 1007.9
20180820134502 75 174 10.0 15.0 0.00 0.76 0.78 93 1008.0
20180820134003 75 179 9.0 13.0 0.00 0.76 0.78 94 1007.9
20180820133502 75 166 7.0 10.0 0.00 0.76 0.78 95 1007.9
20180820133002 74 166 8.0 12.0 0.00 0.76 0.78 96 1007.9
20180820132503 74 168 10.0 17.0 0.00 0.76 0.78 96 1008.0
20180820132002 74 159 10.0 17.0 0.00 0.76 0.78 96 1007.9
20180820131503 74 152 8.0 14.0 0.00 0.76 0.78 96 1007.9
20180820131003 74 165 9.0 13.0 0.00 0.76 0.78 97 1007.9
20180820130502 74 164 10.0 14.0 0.00 0.76 0.78 97 1007.7
20180820130003 73 148 10.0 14.0 0.00 0.76 0.78 98 1007.9
20180820125503 74 135 8.0 13.0 0.00 0.76 0.78 98 1007.6
20180820125002 73 138 8.0 12.0 0.00 0.76 0.78 97 1007.8
20180820124502 73 151 7.0 10.0 0.00 0.76 0.78 97 1007.6
20180820124003 73 154 6.0 9.0 0.00 0.76 0.78 97 1007.7
20180820123503 73 142 6.0 9.0 0.00 0.76 0.78 97 1007.6
20180820123002 73 145 6.0 9.0 0.00 0.76 0.78 97 1007.6
20180820122502 73 146 6.0 8.0 0.00 0.76 0.78 97 1007.6
20180820122003 72 148 6.0 7.0 0.00 0.76 0.78 97 1007.7
20180820121502 72 153 6.0 9.0 0.00 0.76 0.78 97 1007.7
20180820121003 72 140 6.0 9.0 0.00 0.76 0.78 97 1007.4
20180820120503 72 137 6.0 7.0 0.00 0.76 0.78 97 1007.5
20180820120002 72 140 5.0 7.0 0.00 0.76 0.78 97 1007.4
20180820115502 72 132 6.0 9.0 0.00 0.76 0.78 97 1007.6
20180820115003 72 132 8.0 14.0 0.00 0.76 0.78 97 1007.3
20180820114502 72 146 7.0 14.0 0.00 0.76 0.76 97 1007.5
20180820114002 72 166 6.0 8.0 0.00 0.76 0.76 97 1007.4
20180820113503 72 159 7.0 8.0 0.00 0.76 0.76 97 1007.3
20180820113003 72 143 7.0 10.0 0.00 0.76 0.76 97 1007.5
20180820112502 72 155 7.0 10.0 0.00 0.76 0.76 97 1007.4
20180820112003 72 173 7.0 9.0 0.02 0.76 0.76 97 1007.4
20180820111503 72 159 7.0 11.0 0.04 0.76 0.76 97 1007.2
20180820111002 72 137 7.0 11.0 0.13 0.76 0.76 97 1007.2
20180820110503 72 136 7.0 11.0 0.33 0.76 0.76 97 1007.3
20180820110003 72 143 8.0 11.0 0.33 0.76 0.76 97 1007.1
20180820105503 72 143 9.0 11.0 0.33 0.76 0.76 97 1007.1
20180820105003 72 135 8.0 10.0 0.33 0.76 0.76 97 1007.1
20180820104503 72 141 10.0 13.0 0.33 0.76 0.76 97 1007.0
20180820104003 72 133 11.0 13.0 0.33 0.76 0.76 97 1007.3
20180820103503 72 127 10.0 13.0 0.33 0.76 0.76 97 1007.3
20180820103003 72 127 10.0 14.0 0.33 0.76 0.76 97 1007.4
20180820102503 72 123 9.0 14.0 0.32 0.74 0.74 97 1007.4
20180820102003 72 125 11.0 19.0 0.31 0.73 0.73 97 1007.6
20180820101503 72 125 12.0 19.0 0.30 0.72 0.72 97 1007.6
20180820101003 72 133 12.0 12.0 0.18 0.59 0.59 97 1007.6
20180820100503 72 127 11.0 12.0 0.01 0.43 0.43 97 1007.5
20180820100003 72 112 8.0 12.0 0.02 0.43 0.43 97 1007.3
20180820095503 72 118 8.0 10.0 0.02 0.43 0.43 97 1007.3
20180820095003 72 119 7.0 10.0 0.02 0.43 0.43 97 1007.6
20180820094503 72 122 6.0 8.0 0.04 0.43 0.43 97 1007.5
20180820094002 72 122 6.0 10.0 0.06 0.43 0.43 97 1007.6
20180820093503 72 119 7.0 10.0 0.07 0.43 0.43 97 1007.7
20180820093003 72 114 7.0 8.0 0.07 0.43 0.43 97 1007.6
20180820092502 72 114 7.0 10.0 0.08 0.43 0.43 97 1007.7
20180820092003 72 121 9.0 14.0 0.08 0.43 0.43 97 1007.8
20180820091503 72 125 10.0 14.0 0.08 0.43 0.43 97 1007.9
20180820091003 72 139 11.0 14.0 0.08 0.41 0.41 97 1007.9
20180820090502 72 139 10.0 13.0 0.20 0.41 0.41 97 1007.8
20180820090003 72 139 9.0 12.0 0.20 0.40 0.40 97 1008.1
20180820085503 72 133 9.0 12.0 0.21 0.40 0.40 97 1008.1
20180820085003 72 135 9.0 11.0 0.22 0.40 0.40 97 1008.4
20180820084503 72 157 9.0 11.0 0.24 0.38 0.38 97 1008.4
20180820084003 72 135 9.0 11.0 0.26 0.37 0.37 97 1008.2
20180820083502 72 123 9.0 11.0 0.31 0.35 0.35 97 1008.3
20180820083003 72 118 9.0 11.0 0.33 0.35 0.35 97 1008.2
20180820082503 72 118 9.0 11.0 0.34 0.34 0.34 97 1008.4
20180820082003 72 134 8.0 13.0 0.34 0.34 0.34 97 1008.7
20180820081503 72 134 9.0 14.0 0.34 0.34 0.34 96 1008.7
20180820081003 72 131 8.0 14.0 0.32 0.32 0.32 97 1008.6
20180820080503 72 134 6.0 8.0 0.21 0.21 0.21 96 1008.9
20180820080003 72 118 6.0 8.0 0.20 0.20 0.20 96 1009.2
20180820075503 72 119 5.0 7.0 0.19 0.19 0.19 96 1009.3
20180820075003 73 132 7.0 11.0 0.18 0.18 0.18 96 1009.3
20180820074504 73 137 8.0 11.0 0.14 0.14 0.14 95 1009.4
20180820074003 73 134 6.0 9.0 0.09 0.09 0.09 95 1009.3
20180820073503 74 143 5.0 9.0 0.05 0.05 0.05 94 1009.5
20180820073003 74 165 5.0 7.0 0.02 0.02 0.02 93 1009.5
20180820072504 74 172 5.0 6.0 0.00 0.00 0.00 93 1009.4
20180820072003 74 177 4.0 6.0 0.00 0.00 0.00 93 1009.2
20180820071503 74 159 4.0 5.0 0.00 0.00 0.00 92 1009.5
20180820071004 75 136 4.0 6.0 0.00 0.00 0.00 91 1009.2
20180820070503 75 128 6.0 9.0 0.00 0.00 0.00 90 1009.3
20180820070003 75 122 6.0 9.0 0.00 0.00 0.00 90 1009.3
20180820065503 75 108 5.0 7.0 0.00 0.00 0.00 90 1009.3
20180820065004 75 110 5.0 7.0 0.00 0.00 0.00 90 1009.5
20180820064503 75 119 6.0 9.0 0.00 0.00 0.00 90 1009.5
20180820064003 75 117 6.0 9.0 0.00 0.00 0.00 90 1009.6
20180820063503 75 123 6.0 7.0 0.00 0.00 0.00 88 1009.7
20180820063004 75 128 6.0 7.0 0.00 0.00 0.00 88 1009.8
20180820062503 75 123 6.0 7.0 0.00 0.00 0.00 88 1009.9
20180820062001 75 119 5.0 7.0 0.00 0.00 0.00 87 1010.0
20180820061500 76 122 5.0 7.0 0.00 0.00 0.00 87 1010.1
20180820061001 76 127 5.0 7.0 0.00 0.00 0.00 86 1010.0
20180820060501 76 126 5.0 6.0 0.00 0.00 0.00 86 1009.9
20180820060001 76 123 6.0 7.0 0.00 0.00 0.00 86 1010.1
20180820055500 76 131 6.0 9.0 0.00 0.00 0.00 86 1010.0
20180820055001 76 127 7.0 11.0 0.00 0.00 0.00 86 1010.3
20180820054501 76 122 7.0 11.0 0.00 0.00 0.00 86 1010.5
20180820054001 76 114 6.0 10.0 0.00 0.00 0.00 87 1010.3
20180820053500 76 119 6.0 7.0 0.00 0.00 0.00 87 1010.5
20180820053001 76 132 7.0 9.0 0.00 0.00 0.00 86 1010.5
20180820052501 76 128 7.0 10.0 0.00 0.00 0.00 86 1010.6
20180820052001 76 135 8.0 10.0 0.00 0.00 0.00 86 1010.5
20180820051501 76 124 8.0 10.0 0.00 0.00 0.00 86 1010.6
20180820051001 76 96 7.0 9.0 0.00 0.00 0.00 86 1010.5
20180820050501 76 105 7.0 8.0 0.00 0.00 0.00 87 1010.6
20180820050007 76 131 7.0 11.0 0.00 0.00 0.00 87 1010.6
20180820045501 76 138 8.0 11.0 0.00 0.00 0.00 87 1010.6
20180820045001 76 134 8.0 11.0 0.00 0.00 0.00 88 1010.6
20180820044501 76 133 9.0 11.0 0.00 0.00 0.00 88 1010.4
20180820044001 76 128 8.0 9.0 0.00 0.00 0.00 88 1010.5
20180820043500 76 116 8.0 11.0 0.00 0.00 0.00 88 1010.2
20180820043001 76 112 9.0 11.0 0.00 0.00 0.00 88 1010.3
20180820042501 76 113 9.0 12.0 0.00 0.00 0.00 89 1010.2
20180820042002 76 118 9.0 12.0 0.00 0.00 0.00 88 1010.3
20180820041500 76 131 8.0 11.0 0.00 0.00 0.00 88 1010.4
20180820041001 76 134 9.0 11.0 0.00 0.00 0.00 89 1010.5
20180820040501 76 129 9.0 12.0 0.00 0.00 0.00 89 1010.2
20180820040002 76 125 9.0 12.0 0.00 0.00 0.00 88 1010.2
20180820035501 76 120 9.0 11.0 0.00 0.00 0.00 88 1010.4
20180820035001 76 120 7.0 10.0 0.00 0.00 0.00 89 1010.3
20180820034501 76 113 6.0 8.0 0.00 0.00 0.00 89 1010.4
20180820034001 76 105 5.0 7.0 0.00 0.00 0.00 89 1010.5
20180820033501 76 113 5.0 7.0 0.00 0.00 0.00 89 1010.4
20180820033001 76 113 5.0 6.0 0.00 0.00 0.00 89 1010.6
20180820032501 76 116 5.0 7.0 0.00 0.00 0.00 88 1010.5
20180820032001 76 128 6.0 7.0 0.00 0.00 0.00 88 1010.7
20180820031501 76 122 6.0 7.0 0.00 0.00 0.00 88 1011.2
20180820031002 76 126 6.0 7.0 0.00 0.00 0.00 88 1011.3
20180820030501 76 124 6.0 7.0 0.00 0.00 0.00 88 1011.1
20180820030001 76 113 6.0 7.0 0.00 0.00 0.00 88 1011.2
20180820025502 76 109 6.0 7.0 0.00 0.00 0.00 88 1011.3
20180820025002 76 107 6.0 7.0 0.00 0.00 0.00 88 1011.3
20180820024501 76 114 5.0 7.0 0.00 0.00 0.00 89 1011.4
20180820024001 76 135 5.0 6.0 0.00 0.00 0.00 89 1011.3
20180820023501 76 139 5.0 6.0 0.00 0.00 0.00 89 1011.3
20180820023001 76 126 5.0 7.0 0.00 0.00 0.00 89 1011.6
20180820022501 76 117 4.0 7.0 0.00 0.00 0.00 89 1011.3
20180820022001 76 119 4.0 6.0 0.00 0.00 0.00 89 1011.3
20180820021502 76 124 4.0 6.0 0.00 0.00 0.00 88 1011.1
20180820021001 76 123 4.0 5.0 0.00 0.00 0.00 88 1011.2
20180820020501 76 130 5.0 5.0 0.00 0.00 0.00 87 1011.1
20180820020001 76 129 4.0 5.0 0.00 0.00 0.00 87 1011.1
20180820015502 77 127 4.0 5.0 0.00 0.00 0.00 87 1011.3
20180820015001 77 122 4.0 5.0 0.00 0.00 0.00 87 1011.1
20180820014501 76 124 4.0 5.0 0.00 0.00 0.00 87 1011.2
20180820014002 77 121 4.0 5.0 0.00 0.00 0.00 87 1011.0
20180820013501 77 108 3.0 5.0 0.00 0.00 0.00 87 1011.1
20180820013001 77 111 4.0 5.0 0.00 0.00 0.00 86 1011.0
20180820012502 77 105 3.0 5.0 0.00 0.00 0.00 85 1010.6
20180820012002 77 122 2.0 4.0 0.00 0.00 0.00 85 1010.9
20180820011501 77 121 2.0 3.0 0.00 0.00 0.00 84 1011.0
20180820011001 77 94 2.0 3.0 0.00 0.00 0.00 84 1010.8
20180820010502 78 102 2.0 3.0 0.00 0.00 0.00 83 1010.8
20180820010002 78 106 2.0 3.0 0.00 0.00 0.00 83 1010.7
20180820005501 78 108 2.0 3.0 0.00 0.00 0.00 82 1010.9
20180820005001 78 108 2.0 3.0 0.00 0.00 0.00 82 1010.8
20180820004501 78 111 3.0 4.0 0.00 0.00 0.00 82 1011.0
20180820004002 78 109 3.0 4.0 0.00 0.00 0.00 82 1011.1
20180820003501 78 105 3.0 4.0 0.00 0.00 0.00 81 1011.0
20180820003002 79 109 3.0 4.0 0.00 0.00 0.00 80 1011.1
20180820002502 79 111 3.0 5.0 0.00 0.00 0.00 80 1011.1
20180820002001 79 118 3.0 5.0 0.00 0.00 0.00 79 1010.9
20180820001502 80 107 3.0 4.0 0.00 0.00 0.00 79 1011.0
20180820001002 80 104 3.0 4.0 0.00 0.00 0.00 78 1011.1
20180820000501 80 121 3.0 5.0 0.00 0.00 0.00 78 1011.2
20180820000002 80 128 4.0 5.0 0.00 0.00 0.00 76 1011.2
20180819235502 80 130 4.0 5.0 0.00 0.00 0.00 75 1011.3
20180819235002 81 131 4.0 5.0 0.00 0.00 0.00 73 1011.3
20180819234501 81 125 4.0 5.0 0.00 0.00 0.00 72 1011.2
20180819234002 81 124 3.0 5.0 0.00 0.00 0.00 72 1011.2
20180819233502 81 131 3.0 4.0 0.00 0.00 0.00 72 1011.4
20180819233001 81 124 3.0 5.0 0.00 0.00 0.00 71 1011.3
20180819232502 81 122 4.0 5.0 0.00 0.00 0.00 71 1011.4
20180819232002 82 132 5.0 8.0 0.00 0.00 0.00 70 1011.2
20180819231501 82 135 6.0 8.0 0.00 0.00 0.00 69 1011.3
20180819231001 82 127 6.0 7.0 0.00 0.00 0.00 69 1011.3
20180819230502 82 118 6.0 8.0 0.00 0.00 0.00 69 1011.4
20180819230002 82 138 6.0 10.0 0.00 0.00 0.00 68 1011.3
20180819225501 82 149 6.0 10.0 0.00 0.00 0.00 68 1011.4
20180819225002 82 133 7.0 9.0 0.00 0.00 0.00 68 1011.5
20180819224502 82 121 8.0 9.0 0.00 0.00 0.00 67 1011.4
20180819224002 83 106 7.0 9.0 0.00 0.00 0.00 65 1011.6
20180819223501 84 113 7.0 10.0 0.00 0.00 0.00 66 1011.4
20180819223001 83 116 8.0 12.0 0.00 0.00 0.00 64 1011.7
20180819222502 83 120 7.0 12.0 0.00 0.00 0.00 64 1011.5
20180819222002 83 130 6.0 7.0 0.00 0.00 0.00 65 1011.6
20180819221501 83 113 6.0 7.0 0.00 0.00 0.00 65 1011.6
20180819221002 83 108 6.0 9.0 0.00 0.00 0.00 66 1011.7
20180819220502 83 122 7.0 9.0 0.00 0.00 0.00 64 1011.6
20180819220002 83 128 7.0 9.0 0.00 0.00 0.00 65 1011.8
20180819215501 83 123 7.0 9.0 0.00 0.00 0.00 64 1011.7
20180819215002 83 134 8.0 10.0 0.00 0.00 0.00 64 1011.8
20180819214502 83 141 6.0 10.0 0.00 0.00 0.00 63 1011.8
20180819214002 83 139 6.0 9.0 0.00 0.00 0.00 66 1012.0
20180819213502 83 140 6.0 9.0 0.00 0.00 0.00 64 1011.9
20180819213002 83 142 6.0 11.0 0.00 0.00 0.00 66 1011.7
20180819212502 83 133 8.0 11.0 0.00 0.00 0.00 65 1012.0
20180819212002 83 123 7.0 9.0 0.00 0.00 0.00 65 1012.0
20180819211502 83 108 6.0 9.0 0.00 0.00 0.00 65 1012.1
20180819211002 83 111 7.0 9.0 0.00 0.00 0.00 64 1012.1
20180819210502 83 131 6.0 9.0 0.00 0.00 0.00 63 1012.1
20180819210002 84 127 6.0 10.0 0.00 0.00 0.00 65 1012.1
20180819205502 83 125 7.0 10.0 0.00 0.00 0.00 65 1012.1
20180819205002 83 119 6.0 9.0 0.00 0.00 0.00 64 1011.9
20180819204502 83 112 6.0 9.0 0.00 0.00 0.00 63 1012.1
20180819204001 84 121 7.0 8.0 0.00 0.00 0.00 64 1012.3
20180819203502 84 120 8.0 11.0 0.00 0.00 0.00 63 1012.2
20180819203002 83 126 8.0 11.0 0.00 0.00 0.00 62 1012.4
20180819202502 84 162 8.0 11.0 0.00 0.00 0.00 61 1012.6
20180819202002 84 171 7.0 7.0 0.00 0.00 0.00 62 1012.5
20180819201502 84 137 6.0 7.0 0.00 0.00 0.00 62 1012.7
20180819201002 84 141 5.0 7.0 0.00 0.00 0.00 64 1012.6
20180819200502 84 140 7.0 11.0 0.00 0.00 0.00 63 1012.9
20180819200003 84 132 7.0 11.0 0.00 0.00 0.00 64 1012.8
20180819195502 84 127 5.0 9.0 0.00 0.00 0.00 64 1012.8
20180819195002 84 132 6.0 9.0 0.00 0.00 0.00 65 1012.8
20180819194502 84 133 8.0 11.0 0.00 0.00 0.00 66 1013.0
20180819194002 83 127 8.0 11.0 0.00 0.00 0.00 63 1013.2
20180819193502 85 134 8.0 10.0 0.00 0.00 0.00 64 1013.3
20180819193002 83 136 9.0 11.0 0.00 0.00 0.00 63 1013.1
20180819192502 83 125 8.0 11.0 0.00 0.00 0.00 63 1013.2
20180819192002 85 123 7.0 11.0 0.00 0.00 0.00 64 1013.3
20180819191502 85 130 6.0 9.0 0.00 0.00 0.00 63 1013.3
20180819191002 84 142 7.0 14.0 0.00 0.00 0.00 65 1013.2
20180819190502 84 134 9.0 14.0 0.00 0.00 0.00 64 1013.4
20180819190002 83 120 9.0 14.0 0.00 0.00 0.00 63 1013.4
20180819185502 83 126 8.0 10.0 0.00 0.00 0.00 63 1013.4
20180819185002 84 136 7.0 11.0 0.00 0.00 0.00 64 1013.6